Time;durP1;ratioP1;P1;durP2;ratioP2;P2;SDS_P1;SDS_P2;PMS_P1;PMS_P2;Temp;Humidity;BMP_temperature;BMP_pressure;BME280_temperature;BME280_humidity;BME280_pressure;Samples;Min_cycle;Max_cycle;Signal;HPM_P1;HPM_P2
2021/08/19 00:00:27;;;;;;;9.43;5.30;;;;;;;15.86;100.00;95953.69;1044679;28;20467;-77
2021/08/19 00:00:57;;;;;;;6.20;4.47;;;;;;;15.88;100.00;95953.41;1040162;28;20033;-77
2021/08/19 00:01:28;;;;;;;9.20;5.97;;;;;;;15.89;100.00;95950.38;1040358;28;20025;-77
2021/08/19 00:01:58;;;;;;;11.03;6.07;;;;;;;15.88;100.00;95946.09;1040266;28;20028;-76
2021/08/19 00:02:29;;;;;;;9.20;5.23;;;;;;;15.86;100.00;95954.47;1036316;28;20049;-77
2021/08/19 00:03:00;;;;;;;10.20;5.23;;;;;;;15.84;100.00;95951.28;1044410;28;20389;-77
2021/08/19 00:03:30;;;;;;;11.10;5.78;;;;;;;15.77;100.00;95952.84;1040282;28;20084;-77
2021/08/19 00:04:01;;;;;;;10.20;5.43;;;;;;;15.69;100.00;95953.53;1036461;28;20014;-77
2021/08/19 00:04:31;;;;;;;9.47;5.63;;;;;;;15.57;100.00;95954.03;1040266;28;20033;-77
2021/08/19 00:05:02;;;;;;;8.53;5.57;;;;;;;15.56;100.00;95953.25;1040310;28;20053;-78
2021/08/19 00:05:33;;;;;;;10.90;5.00;;;;;;;15.64;100.00;95956.34;1040121;28;20029;-77
2021/08/19 00:06:03;;;;;;;12.47;5.93;;;;;;;15.64;100.00;95950.94;1044345;28;20032;-77
2021/08/19 00:06:34;;;;;;;10.87;5.10;;;;;;;15.66;100.00;95951.44;1040216;28;20030;-77
2021/08/19 00:07:04;;;;;;;10.67;5.17;;;;;;;15.63;100.00;95955.53;1040378;28;20026;-77
2021/08/19 00:07:34;;;;;;;10.57;5.17;;;;;;;15.64;100.00;95946.34;1044404;28;20470;-77
2021/08/19 00:08:05;;;;;;;10.37;4.90;;;;;;;15.63;100.00;95952.84;1036297;28;20025;-78
2021/08/19 00:08:35;;;;;;;8.47;5.10;;;;;;;15.60;100.00;95951.50;1040256;28;20028;-77
2021/08/19 00:09:06;;;;;;;9.83;5.03;;;;;;;15.57;100.00;95952.13;1032162;28;20154;-77
2021/08/19 00:09:37;;;;;;;8.50;5.00;;;;;;;15.55;100.00;95945.44;1028269;28;20049;-77
2021/08/19 00:10:10;;;;;;;8.40;5.15;;;;;;;15.56;100.00;95945.16;1036092;28;20029;-77
2021/08/19 00:10:40;;;;;;;8.13;5.05;;;;;;;15.58;100.00;95948.34;1025064;28;20023;-77
2021/08/19 00:11:11;;;;;;;7.30;5.03;;;;;;;15.60;100.00;95943.44;1032541;28;20136;-77
2021/08/19 00:11:41;;;;;;;10.20;5.40;;;;;;;15.57;100.00;95946.75;1036185;28;20113;-77
2021/08/19 00:12:12;;;;;;;11.40;5.43;;;;;;;15.55;100.00;95945.44;1036627;28;20046;-77
2021/08/19 00:12:42;;;;;;;11.30;5.87;;;;;;;15.54;100.00;95952.72;1044623;28;20021;-77
2021/08/19 00:13:13;;;;;;;8.53;5.00;;;;;;;15.50;100.00;95946.34;1040317;28;20654;-77
2021/08/19 00:13:43;;;;;;;9.80;5.57;;;;;;;15.49;100.00;95947.44;1040280;28;20474;-77
2021/08/19 00:14:14;;;;;;;10.50;6.07;;;;;;;15.47;100.00;95946.97;1036257;28;20022;-77
2021/08/19 00:14:44;;;;;;;12.50;5.97;;;;;;;15.45;100.00;95942.97;1032156;28;20026;-78
2021/08/19 00:15:14;;;;;;;9.73;5.73;;;;;;;15.43;100.00;95937.09;1040266;28;20017;-77
2021/08/19 00:15:45;;;;;;;11.17;5.70;;;;;;;15.42;100.00;95946.28;1036098;28;20028;-78
2021/08/19 00:16:15;;;;;;;8.27;5.10;;;;;;;15.43;100.00;95945.97;1040389;28;20146;-77
2021/08/19 00:16:46;;;;;;;13.03;5.97;;;;;;;15.46;100.00;95939.19;1031958;28;20073;-77
2021/08/19 00:17:16;;;;;;;8.53;4.97;;;;;;;15.46;100.00;95942.69;1027892;28;20037;-77
2021/08/19 00:17:47;;;;;;;13.50;5.90;;;;;;;15.43;100.00;95940.59;1031838;28;20042;-77
2021/08/19 00:18:17;;;;;;;10.57;5.50;;;;;;;15.45;100.00;95946.44;1032345;28;20034;-77
2021/08/19 00:18:47;;;;;;;10.10;5.07;;;;;;;15.41;100.00;95947.38;1044286;28;20032;-78
2021/08/19 00:19:18;;;;;;;9.97;5.60;;;;;;;15.39;100.00;95944.97;1040199;28;20025;-77
2021/08/19 00:19:48;;;;;;;9.93;5.03;;;;;;;15.40;100.00;95949.25;1040234;28;20056;-77
2021/08/19 00:20:19;;;;;;;9.13;5.20;;;;;;;15.38;100.00;95953.38;1040268;28;20406;-77
2021/08/19 00:20:49;;;;;;;8.13;5.27;;;;;;;15.39;100.00;95939.59;1040134;28;20498;-77
2021/08/19 00:21:20;;;;;;;9.63;5.70;;;;;;;15.40;100.00;95949.25;1032017;28;20025;-77
2021/08/19 00:21:50;;;;;;;8.00;5.00;;;;;;;15.38;100.00;95948.78;1027986;28;20023;-77
2021/08/19 00:22:20;;;;;;;9.37;5.33;;;;;;;15.36;100.00;95948.28;1032074;28;20018;-77
2021/08/19 00:22:51;;;;;;;12.43;5.67;;;;;;;15.34;100.00;95945.06;1036265;28;20403;-77
2021/08/19 00:23:21;;;;;;;10.17;5.30;;;;;;;15.32;100.00;95944.59;1040179;28;20455;-77
2021/08/19 00:23:52;;;;;;;10.93;5.77;;;;;;;15.31;100.00;95943.81;1044142;28;20017;-77
2021/08/19 00:24:22;;;;;;;10.47;5.50;;;;;;;15.29;100.00;95945.19;1040289;28;20029;-77
2021/08/19 00:24:52;;;;;;;9.33;5.70;;;;;;;15.29;100.00;95953.25;1040143;28;20085;-77
2021/08/19 00:25:24;;;;;;;8.13;5.50;;;;;;;15.28;100.00;95941.69;1040197;28;20025;-78
2021/08/19 00:25:55;;;;;;;9.88;5.53;;;;;;;15.27;100.00;95942.00;1031944;28;20033;-77
2021/08/19 00:26:25;;;;;;;10.60;5.40;;;;;;;15.25;100.00;95938.81;1032271;28;20102;-77
2021/08/19 00:26:56;;;;;;;9.93;5.50;;;;;;;15.25;100.00;95941.50;1036124;28;20025;-78
2021/08/19 00:27:26;;;;;;;10.80;5.80;;;;;;;15.20;100.00;95944.28;1036172;28;20041;-77
2021/08/19 00:27:57;;;;;;;11.03;5.73;;;;;;;15.23;100.00;95939.09;1027908;28;20030;-77
2021/08/19 00:28:27;;;;;;;8.87;5.70;;;;;;;15.23;100.00;95939.09;1028147;28;20082;-77
2021/08/19 00:28:57;;;;;;;9.47;5.30;;;;;;;15.24;100.00;95948.78;1032121;28;20055;-77
2021/08/19 00:29:28;;;;;;;9.13;5.30;;;;;;;15.28;100.00;95940.91;1032165;28;20063;-77
2021/08/19 00:29:59;;;;;;;9.03;5.47;;;;;;;15.32;100.00;95933.81;1036142;28;20063;-77
2021/08/19 00:30:29;;;;;;;10.23;5.47;;;;;;;15.30;100.00;95941.38;1040186;28;20013;-78
2021/08/19 00:31:00;;;;;;;10.50;5.67;;;;;;;15.29;100.00;95940.59;1036117;28;20025;-77
2021/08/19 00:31:30;;;;;;;8.70;4.90;;;;;;;15.31;100.00;95938.41;1040359;28;20573;-78
2021/08/19 00:32:04;;;;;;;12.30;5.03;;;;;;;15.29;100.00;95940.59;1040020;28;20485;-77
2021/08/19 00:32:35;;;;;;;8.98;5.13;;;;;;;15.30;100.00;95936.00;1032620;28;20026;-78
2021/08/19 00:33:05;;;;;;;9.57;4.67;;;;;;;15.32;100.00;95931.13;1032061;28;20023;-78
2021/08/19 00:33:36;;;;;;;9.00;5.43;;;;;;;15.30;100.00;95941.38;1032605;28;20488;-78
2021/08/19 00:34:06;;;;;;;8.30;4.97;;;;;;;15.27;100.00;95937.41;1036261;28;20030;-77
2021/08/19 00:34:36;;;;;;;7.80;5.00;;;;;;;15.26;100.00;95935.03;1044286;28;20033;-77
2021/08/19 00:35:07;;;;;;;10.00;5.47;;;;;;;15.23;100.00;95941.00;1044234;28;20020;-77
2021/08/19 00:35:38;;;;;;;8.55;5.03;;;;;;;15.24;100.00;95934.53;1044186;28;20029;-77
2021/08/19 00:36:08;;;;;;;9.97;4.90;;;;;;;15.20;100.00;95938.91;1044280;28;20017;-77
2021/08/19 00:36:39;;;;;;;15.07;5.37;;;;;;;15.22;100.00;95942.13;1044327;28;20029;-77
2021/08/19 00:37:10;;;;;;;8.68;5.53;;;;;;;15.25;100.00;95933.41;1044224;28;20017;-78
2021/08/19 00:37:40;;;;;;;10.47;4.80;;;;;;;15.28;100.00;95930.94;1044238;28;20045;-77
2021/08/19 00:38:10;;;;;;;9.50;5.27;;;;;;;15.30;100.00;95928.75;1044325;28;20017;-78
2021/08/19 00:38:41;;;;;;;8.20;5.30;;;;;;;15.32;100.00;95936.53;1040185;28;20025;-77
2021/08/19 00:39:12;;;;;;;11.38;5.00;;;;;;;15.33;100.00;95925.44;1040085;28;20036;-77
2021/08/19 00:39:42;;;;;;;10.20;5.07;;;;;;;15.36;100.00;95924.06;1035940;28;20128;-77
2021/08/19 00:40:13;;;;;;;8.47;4.80;;;;;;;15.41;100.00;95933.91;1036301;28;20496;-77
2021/08/19 00:40:44;;;;;;;7.90;4.87;;;;;;;15.42;100.00;95924.75;1040286;28;20022;-77
2021/08/19 00:41:14;;;;;;;9.30;5.20;;;;;;;15.41;100.00;95928.53;1036153;28;20014;-77
2021/08/19 00:41:45;;;;;;;8.53;5.03;;;;;;;15.40;100.00;95925.03;1027864;28;20540;-77
2021/08/19 00:42:15;;;;;;;8.33;5.23;;;;;;;15.42;100.00;95930.13;1027912;28;20030;-77
2021/08/19 00:42:46;;;;;;;9.67;4.93;;;;;;;15.42;100.00;95925.53;1028152;28;20046;-77
2021/08/19 00:43:17;;;;;;;9.10;5.10;;;;;;;15.44;100.00;95931.41;1028019;28;20043;-78
2021/08/19 00:43:49;;;;;;;10.15;5.28;;;;;;;15.40;100.00;95919.63;1031856;28;20026;-77
2021/08/19 00:44:21;;;;;;;7.90;4.70;;;;;;;15.39;100.00;95928.03;1032848;28;20030;-77
2021/08/19 00:44:51;;;;;;;9.70;5.05;;;;;;;15.34;100.00;95924.34;1036528;28;20033;-77
2021/08/19 00:45:22;;;;;;;9.23;5.60;;;;;;;15.33;100.00;95935.41;1040601;28;20021;-78
2021/08/19 00:45:52;;;;;;;8.27;4.77;;;;;;;15.33;100.00;95930.03;1040152;28;20356;-77
2021/08/19 00:46:27;;;;;;;9.00;4.80;;;;;;;15.34;100.00;95929.72;1032052;28;20019;-77
2021/08/19 00:46:57;;;;;;;10.85;5.18;;;;;;;15.39;100.00;95931.50;1036042;28;20021;-78
2021/08/19 00:47:29;;;;;;;10.13;5.50;;;;;;;15.39;100.00;95928.81;1032470;28;20518;-78
2021/08/19 00:47:59;;;;;;;7.68;4.65;;;;;;;15.40;100.00;95930.41;1033379;28;20148;-77
2021/08/19 00:48:30;;;;;;;9.67;5.17;;;;;;;15.40;100.00;95933.09;1040078;28;20103;-77
2021/08/19 00:49:05;;;;;;;9.88;4.82;;;;;;;15.42;100.00;95928.22;1036350;28;20525;-77
2021/08/19 00:49:39;;;;;;;8.80;4.80;;;;;;;15.37;100.00;95924.84;1036664;28;20085;-77
2021/08/19 00:50:09;;;;;;;9.90;4.88;;;;;;;15.37;100.00;95932.94;1040014;28;20486;-77
2021/08/19 00:50:40;;;;;;;9.83;5.60;;;;;;;15.36;100.00;95929.44;1027862;28;20077;-77
2021/08/19 00:51:10;;;;;;;10.53;5.60;;;;;;;15.36;100.00;95931.34;1025575;28;20015;-77
2021/08/19 00:51:42;;;;;;;7.50;4.67;;;;;;;15.35;100.00;95930.50;1032000;28;20092;-77
2021/08/19 00:52:13;;;;;;;10.15;4.95;;;;;;;15.34;100.00;95926.22;1032770;28;20037;-77
2021/08/19 00:52:43;;;;;;;10.17;5.40;;;;;;;15.35;100.00;95933.22;1040458;28;20494;-77
2021/08/19 00:53:14;;;;;;;7.87;5.23;;;;;;;15.32;100.00;95926.53;1040107;28;20494;-77
2021/08/19 00:53:44;;;;;;;10.10;5.10;;;;;;;15.31;100.00;95930.34;1032064;28;20014;-78
2021/08/19 00:54:23;;;;;;;10.00;5.60;;;;;;;15.29;100.00;95924.44;1027878;28;20396;-77
2021/08/19 00:54:54;;;;;;;8.68;5.32;;;;;;;15.29;100.00;95929.03;1032007;28;20448;-77
2021/08/19 00:55:24;;;;;;;8.00;5.07;;;;;;;15.27;100.00;95932.03;1033247;28;20019;-77
2021/08/19 00:55:55;;;;;;;10.80;5.53;;;;;;;15.29;100.00;95935.22;1037302;28;20272;-77
2021/08/19 00:56:25;;;;;;;10.20;5.83;;;;;;;15.32;100.00;95923.06;1039474;28;20025;-78
2021/08/19 00:56:59;;;;;;;9.57;5.37;;;;;;;15.32;100.00;95931.94;1040169;28;20021;-77
2021/08/19 00:57:30;;;;;;;12.10;5.15;;;;;;;15.33;100.00;95925.44;1044166;28;20020;-77
2021/08/19 00:58:00;;;;;;;10.87;5.40;;;;;;;15.36;100.00;95917.88;1036071;28;20467;-77
2021/08/19 00:58:30;;;;;;;9.97;5.20;;;;;;;15.39;100.00;95922.63;1035427;28;20315;-77
2021/08/19 00:59:03;;;;;;;8.63;4.97;;;;;;;15.41;100.00;95920.47;1031872;28;20019;-77
2021/08/19 00:59:34;;;;;;;8.93;5.15;;;;;;;15.42;100.00;95920.16;1036324;28;20057;-77
2021/08/19 01:00:08;;;;;;;9.85;5.15;;;;;;;15.42;100.00;95913.97;1035975;28;20018;-77
2021/08/19 01:00:38;;;;;;;11.23;5.47;;;;;;;15.42;100.00;95917.44;1037623;28;20384;-77
2021/08/19 01:01:09;;;;;;;9.40;5.17;;;;;;;15.41;100.00;95913.16;1036119;28;20033;-77
2021/08/19 01:01:40;;;;;;;9.67;5.30;;;;;;;15.41;100.00;95921.25;1032564;28;20432;-77
2021/08/19 01:02:10;;;;;;;8.53;4.97;;;;;;;15.38;100.00;95921.84;1035911;28;20371;-77
2021/08/19 01:02:46;;;;;;;9.00;5.30;;;;;;;15.40;100.00;95921.53;1036217;28;20018;-77
2021/08/19 01:03:16;;;;;;;10.38;5.70;;;;;;;15.39;100.00;95923.44;1036832;28;20494;-77
2021/08/19 01:03:47;;;;;;;8.47;4.73;;;;;;;15.39;100.00;95918.03;1036015;28;20030;-77
2021/08/19 01:04:17;;;;;;;11.33;5.13;;;;;;;15.40;100.00;95916.94;1036013;28;20041;-77
2021/08/19 01:04:48;;;;;;;10.23;5.10;;;;;;;15.40;100.00;95916.16;1036953;28;20414;-77
2021/08/19 01:05:22;;;;;;;8.97;5.30;;;;;;;15.39;100.00;95920.75;1032012;28;20387;-78
2021/08/19 01:05:52;;;;;;;10.13;5.13;;;;;;;15.38;100.00;95918.34;1031974;28;20028;-77
2021/08/19 01:06:23;;;;;;;11.33;5.57;;;;;;;15.38;100.00;95921.06;1027907;28;20049;-78
2021/08/19 01:06:53;;;;;;;12.77;6.00;;;;;;;15.35;100.00;95922.44;1029668;28;20392;-77
2021/08/19 01:07:24;;;;;;;11.63;5.33;;;;;;;15.38;100.00;95921.84;1036564;28;20145;-77
2021/08/19 01:07:54;;;;;;;10.93;5.13;;;;;;;15.36;100.00;95917.88;1040085;28;20033;-77
2021/08/19 01:08:25;;;;;;;9.97;5.30;;;;;;;15.39;100.00;95925.34;1044218;28;20069;-77
2021/08/19 01:08:55;;;;;;;7.80;5.03;;;;;;;15.43;100.00;95920.94;1039890;28;20029;-77
2021/08/19 01:09:25;;;;;;;9.00;5.20;;;;;;;15.46;100.00;95918.44;1039563;28;20014;-77
2021/08/19 01:09:56;;;;;;;11.70;5.30;;;;;;;15.50;100.00;95918.63;1040109;28;20545;-77
2021/08/19 01:10:27;;;;;;;12.73;6.23;;;;;;;15.50;100.00;95924.00;1036101;28;20022;-77
2021/08/19 01:10:58;;;;;;;8.48;4.97;;;;;;;15.50;100.00;95918.63;1036112;28;20030;-77
2021/08/19 01:11:28;;;;;;;10.70;5.27;;;;;;;15.47;100.00;95925.44;1031953;28;20511;-78
2021/08/19 01:11:58;;;;;;;7.80;4.90;;;;;;;15.47;100.00;95927.31;1035934;28;20391;-77
2021/08/19 01:12:29;;;;;;;10.47;5.50;;;;;;;15.47;100.00;95930.81;1035816;28;20464;-78
2021/08/19 01:12:59;;;;;;;8.47;5.40;;;;;;;15.51;100.00;95923.72;1036037;28;20022;-77
2021/08/19 01:13:30;;;;;;;8.83;4.90;;;;;;;15.53;100.00;95926.91;1031987;28;20030;-77
2021/08/19 01:14:00;;;;;;;9.83;5.50;;;;;;;15.52;100.00;95922.63;1023838;28;20027;-78
2021/08/19 01:14:31;;;;;;;9.10;5.47;;;;;;;15.51;100.00;95926.41;1027974;28;20030;-77
2021/08/19 01:15:02;;;;;;;11.23;5.90;;;;;;;15.51;100.00;95926.41;1027914;28;20161;-78
2021/08/19 01:15:32;;;;;;;8.77;5.33;;;;;;;15.50;100.00;95924.81;1032054;28;20026;-77
2021/08/19 01:16:03;;;;;;;8.80;5.33;;;;;;;15.49;100.00;95925.91;1032124;28;20018;-77
2021/08/19 01:16:33;;;;;;;8.83;4.93;;;;;;;15.47;100.00;95925.44;1036142;28;20022;-77
2021/08/19 01:17:13;;;;;;;11.43;5.10;;;;;;;15.45;100.00;95927.59;1035946;28;20033;-77
2021/08/19 01:17:51;;;;;;;;;;;;;;;15.42;100.00;95930.13;1032212;28;20380;-77
2021/08/19 01:18:22;;;;;;;8.93;5.45;;;;;;;15.43;100.00;95924.44;1028039;28;19940;-78
2021/08/19 01:18:52;;;;;;;7.77;4.67;;;;;;;15.46;100.00;95923.03;1024237;29;20481;-77
2021/08/19 01:19:23;;;;;;;9.43;5.53;;;;;;;15.47;100.00;95913.84;1027648;28;20110;-77
2021/08/19 01:19:53;;;;;;;8.43;4.80;;;;;;;15.48;100.00;95921.63;1032413;28;20507;-77
2021/08/19 01:20:31;;;;;;;7.90;4.67;;;;;;;15.51;100.00;95928.31;1040628;28;20095;-77
2021/08/19 01:21:01;;;;;;;9.52;4.90;;;;;;;15.51;100.00;95915.66;1044996;28;20021;-78
2021/08/19 01:21:32;;;;;;;11.47;4.80;;;;;;;15.51;100.00;95923.72;1040701;28;20037;-77
2021/08/19 01:22:02;;;;;;;9.37;5.20;;;;;;;15.52;100.00;95924.53;1040349;28;20036;-77
2021/08/19 01:22:33;;;;;;;9.60;5.17;;;;;;;15.49;100.00;95923.22;1037261;28;20108;-77
2021/08/19 01:23:04;;;;;;;9.67;5.40;;;;;;;15.50;100.00;95915.94;1036570;28;20033;-77
2021/08/19 01:23:34;;;;;;;9.07;5.27;;;;;;;15.47;100.00;95925.44;1044413;28;20290;-77
2021/08/19 01:24:04;;;;;;;9.67;5.10;;;;;;;15.45;100.00;95924.91;1044621;28;20079;-78
2021/08/19 01:24:35;;;;;;;8.40;5.10;;;;;;;15.48;100.00;95926.22;1044756;28;20493;-78
2021/08/19 01:25:06;;;;;;;9.10;4.80;;;;;;;15.51;100.00;95923.72;1044512;28;20411;-77
2021/08/19 01:25:37;;;;;;;8.98;4.85;;;;;;;15.53;100.00;95921.50;1044373;28;20029;-77
2021/08/19 01:26:09;;;;;;;10.43;5.10;;;;;;;15.51;100.00;95917.53;1044313;28;20053;-77
2021/08/19 01:26:40;;;;;;;7.35;4.75;;;;;;;15.50;100.00;95924.00;1044325;28;20456;-77
2021/08/19 01:27:14;;;;;;;10.73;5.07;;;;;;;15.51;100.00;95926.41;1044152;28;20059;-77
2021/08/19 01:27:45;;;;;;;8.20;4.97;;;;;;;15.53;100.00;95926.91;1040118;28;20441;-77
2021/08/19 01:28:15;;;;;;;9.30;4.90;;;;;;;15.54;100.00;95925.00;1040194;28;20017;-77
2021/08/19 01:28:46;;;;;;;8.77;5.23;;;;;;;15.53;100.00;95918.03;1040700;28;20033;-77
2021/08/19 01:29:17;;;;;;;8.98;4.72;;;;;;;15.54;100.00;95925.78;1040255;28;20080;-77
2021/08/19 01:29:48;;;;;;;8.53;5.17;;;;;;;15.52;100.00;95927.22;1044123;28;20037;-77
2021/08/19 01:30:22;;;;;;;13.13;4.90;;;;;;;15.51;100.00;95925.63;1044080;28;20083;-77
2021/08/19 01:30:52;;;;;;;10.27;4.53;;;;;;;15.49;100.00;95930.50;1044236;28;20104;-77
2021/08/19 01:31:25;;;;;;;8.63;5.00;;;;;;;15.50;100.00;95926.69;1044497;28;20017;-77
2021/08/19 01:32:00;;;;;;;7.78;4.45;;;;;;;15.47;100.00;95930.00;1044382;28;20060;-78
2021/08/19 01:32:33;;;;;;;9.68;5.13;;;;;;;15.42;100.00;95928.22;1039902;28;20124;-77
2021/08/19 01:33:04;;;;;;;8.57;5.32;;;;;;;15.38;100.00;95927.22;1040033;28;20029;-78
2021/08/19 01:33:34;;;;;;;8.07;5.10;;;;;;;15.34;100.00;95926.22;1040065;28;20033;-77
2021/08/19 01:34:05;;;;;;;10.77;4.67;;;;;;;15.33;100.00;95919.25;1040581;28;20356;-78
2021/08/19 01:34:35;;;;;;;9.20;4.57;;;;;;;15.29;100.00;95929.81;1039997;28;20390;-77
2021/08/19 01:35:06;;;;;;;13.53;5.37;;;;;;;15.30;100.00;95925.22;1031877;28;20022;-77
2021/08/19 01:35:36;;;;;;;9.40;4.77;;;;;;;15.30;100.00;95927.94;1035897;28;20386;-77
2021/08/19 01:36:06;;;;;;;9.63;4.93;;;;;;;15.31;100.00;95933.03;1036042;28;20479;-77
2021/08/19 01:36:37;;;;;;;8.30;4.73;;;;;;;15.32;100.00;95920.38;1036162;28;20029;-77
2021/08/19 01:37:07;;;;;;;11.40;4.70;;;;;;;15.30;100.00;95933.31;1043999;28;20024;-77
2021/08/19 01:37:38;;;;;;;11.10;5.17;;;;;;;15.31;100.00;95930.34;1039978;28;20021;-78
2021/08/19 01:38:08;;;;;;;9.50;4.93;;;;;;;15.31;100.00;95926.84;1035990;28;20022;-77
2021/08/19 01:38:39;;;;;;;9.60;5.37;;;;;;;15.26;100.00;95930.44;1035989;28;20022;-77
2021/08/19 01:39:09;;;;;;;7.73;4.50;;;;;;;15.31;100.00;95932.25;1040017;28;20457;-77
2021/08/19 01:39:40;;;;;;;8.00;4.70;;;;;;;15.35;100.00;95927.81;1036020;28;20036;-77
2021/08/19 01:40:10;;;;;;;10.37;4.87;;;;;;;15.37;100.00;95920.25;1035902;28;20037;-77
2021/08/19 01:40:40;;;;;;;8.50;4.80;;;;;;;15.40;100.00;95925.03;1039955;28;20051;-77
2021/08/19 01:41:11;;;;;;;9.50;4.57;;;;;;;15.42;100.00;95922.84;1040020;28;20517;-78
2021/08/19 01:41:42;;;;;;;9.23;5.50;;;;;;;15.44;100.00;95930.59;1044121;28;20071;-78
2021/08/19 01:42:12;;;;;;;8.67;4.63;;;;;;;15.46;100.00;95926.53;1044295;28;20048;-77
2021/08/19 01:42:43;;;;;;;6.47;4.50;;;;;;;15.47;100.00;95924.63;1044419;28;20036;-77
2021/08/19 01:43:13;;;;;;;10.10;5.00;;;;;;;15.47;100.00;95925.44;1044430;28;20032;-78
2021/08/19 01:43:45;;;;;;;9.77;5.03;;;;;;;15.51;100.00;95925.63;1044355;28;20275;-78
2021/08/19 01:44:19;;;;;;;6.63;4.15;;;;;;;15.52;100.00;95924.53;1044305;28;20020;-77
2021/08/19 01:44:49;;;;;;;10.80;5.43;;;;;;;15.51;100.00;95918.34;1044090;28;20032;-78
2021/08/19 01:45:21;;;;;;;10.07;5.20;;;;;;;15.54;100.00;95919.63;1039984;28;20030;-77
2021/08/19 01:45:54;;;;;;;9.23;5.15;;;;;;;15.57;100.00;95922.50;1035960;28;20054;-77
2021/08/19 01:46:24;;;;;;;8.05;4.90;;;;;;;15.59;100.00;95927.59;1031784;28;20030;-77
2021/08/19 01:46:58;;;;;;;9.23;5.07;;;;;;;15.58;100.00;95921.41;1028877;28;20485;-77
2021/08/19 01:47:30;;;;;;;7.57;4.78;;;;;;;15.60;100.00;95931.88;1028733;28;20023;-78
2021/08/19 01:48:00;;;;;;;8.65;4.93;;;;;;;15.57;100.00;95927.91;1028426;28;20019;-78
2021/08/19 01:48:31;;;;;;;10.23;5.50;;;;;;;15.58;100.00;95926.78;1032497;28;20022;-77
2021/08/19 01:49:02;;;;;;;8.77;4.83;;;;;;;15.59;100.00;95930.28;1036329;28;20025;-77
2021/08/19 01:49:33;;;;;;;7.40;4.85;;;;;;;15.62;100.00;95931.59;1040080;28;20021;-77
2021/08/19 01:50:04;;;;;;;7.85;4.70;;;;;;;15.59;100.00;95927.59;1044045;28;20048;-77
2021/08/19 01:50:34;;;;;;;8.53;5.33;;;;;;;15.62;100.00;95926.19;1039845;28;20105;-77
2021/08/19 01:51:05;;;;;;;8.00;4.90;;;;;;;15.62;100.00;95928.88;1040114;28;20025;-77
2021/08/19 01:51:36;;;;;;;8.80;4.82;;;;;;;15.62;100.00;95931.59;1039850;28;20103;-77
2021/08/19 01:52:08;;;;;;;9.27;4.97;;;;;;;15.59;100.00;95924.88;1031898;28;20476;-78
2021/08/19 01:52:41;;;;;;;9.80;5.25;;;;;;;15.57;100.00;95927.09;1035792;28;20080;-77
2021/08/19 01:53:11;;;;;;;8.38;5.05;;;;;;;15.58;100.00;95924.09;1035754;28;20045;-77
2021/08/19 01:53:42;;;;;;;11.07;5.20;;;;;;;15.56;100.00;95928.22;1037218;28;20018;-78
2021/08/19 01:54:13;;;;;;;10.00;5.37;;;;;;;15.53;100.00;95924.22;1035817;28;20022;-77
2021/08/19 01:54:43;;;;;;;6.93;4.23;;;;;;;15.55;100.00;95922.00;1035992;28;20422;-77
2021/08/19 01:55:13;;;;;;;9.43;5.27;;;;;;;15.56;100.00;95920.13;1039961;28;20424;-77
2021/08/19 01:55:45;;;;;;;8.10;5.20;;;;;;;15.55;100.00;95922.00;1040143;28;20022;-77
2021/08/19 01:56:24;;;;;;;9.82;4.97;;;;;;;15.52;100.00;95922.63;1044371;28;20123;-77
2021/08/19 01:56:55;;;;;;;9.50;5.38;;;;;;;15.53;100.00;95916.13;1044320;28;20033;-77
2021/08/19 01:57:25;;;;;;;7.57;4.80;;;;;;;15.56;100.00;95925.50;1044099;28;20017;-77
2021/08/19 01:57:55;;;;;;;7.73;4.90;;;;;;;15.58;100.00;95923.31;1044138;28;20028;-78
2021/08/19 01:58:26;;;;;;;7.27;4.67;;;;;;;15.55;100.00;95915.81;1044171;28;20026;-77
2021/08/19 01:58:56;;;;;;;11.10;4.87;;;;;;;15.56;100.00;95920.91;1044035;28;20083;-78
2021/08/19 01:59:27;;;;;;;9.30;4.90;;;;;;;15.57;100.00;95921.72;1044067;28;20102;-77
2021/08/19 01:59:57;;;;;;;8.87;5.60;;;;;;;15.57;100.00;95921.72;1035896;28;20097;-77
2021/08/19 02:00:28;;;;;;;9.27;5.40;;;;;;;15.53;100.00;95926.09;1035932;28;20495;-78
2021/08/19 02:00:58;;;;;;;9.10;4.63;;;;;;;15.55;100.00;95926.59;1035856;28;20018;-78
2021/08/19 02:01:29;;;;;;;9.63;5.37;;;;;;;15.53;100.00;95924.22;1036039;28;20061;-78
2021/08/19 02:02:02;;;;;;;9.63;5.33;;;;;;;15.52;100.00;95921.81;1039848;28;20029;-78
2021/08/19 02:02:32;;;;;;;9.77;5.53;;;;;;;15.55;100.00;95922.00;1039953;28;20434;-78
2021/08/19 02:03:03;;;;;;;8.60;4.50;;;;;;;15.58;100.00;95929.47;1040364;28;20025;-78
2021/08/19 02:03:33;;;;;;;8.07;4.67;;;;;;;15.60;100.00;95934.56;1040379;28;20021;-77
2021/08/19 02:04:04;;;;;;;9.03;5.20;;;;;;;15.59;100.00;95927.59;1044084;28;20393;-78
2021/08/19 02:04:35;;;;;;;7.25;4.30;;;;;;;15.58;100.00;95926.00;1039957;28;20034;-78
2021/08/19 02:05:06;;;;;;;9.67;5.40;;;;;;;15.56;100.00;95917.44;1040133;28;20360;-77
2021/08/19 02:05:38;;;;;;;10.70;5.47;;;;;;;15.59;100.00;95924.88;1040037;28;20120;-77
2021/08/19 02:06:08;;;;;;;10.00;5.00;;;;;;;15.55;100.00;95927.38;1040272;28;20056;-77
2021/08/19 02:06:38;;;;;;;9.00;5.43;;;;;;;15.55;100.00;95921.19;1040060;28;20079;-77
2021/08/19 02:07:09;;;;;;;7.83;4.93;;;;;;;15.50;100.00;95921.31;1036169;28;20088;-77
2021/08/19 02:07:39;;;;;;;8.77;4.90;;;;;;;15.51;100.00;95920.25;1039998;28;20416;-77
2021/08/19 02:08:10;;;;;;;8.77;4.93;;;;;;;15.47;100.00;95925.44;1035877;28;20021;-77
2021/08/19 02:08:40;;;;;;;7.63;4.67;;;;;;;15.47;100.00;95925.44;1040043;28;20030;-78
2021/08/19 02:09:10;;;;;;;10.57;5.43;;;;;;;15.49;100.00;95920.53;1039821;28;20018;-77
2021/08/19 02:09:41;;;;;;;8.77;5.53;;;;;;;15.46;100.00;95923.03;1031859;28;20388;-78
2021/08/19 02:10:11;;;;;;;10.63;5.70;;;;;;;15.41;100.00;95915.06;1035839;28;20025;-77
2021/08/19 02:10:42;;;;;;;9.23;5.30;;;;;;;15.44;100.00;95914.44;1035927;28;20037;-78
2021/08/19 02:11:12;;;;;;;9.60;5.17;;;;;;;15.43;100.00;95913.66;1039933;28;20029;-76
2021/08/19 02:11:44;;;;;;;9.77;5.27;;;;;;;15.45;100.00;95919.53;1044275;28;20017;-78
2021/08/19 02:12:14;;;;;;;7.97;4.68;;;;;;;15.45;100.00;95916.84;1043953;28;20020;-77
2021/08/19 02:12:45;;;;;;;8.77;5.40;;;;;;;15.44;100.00;95915.25;1044140;28;20064;-78
2021/08/19 02:13:15;;;;;;;10.67;5.40;;;;;;;15.45;100.00;95916.03;1039948;28;20403;-78
2021/08/19 02:13:46;;;;;;;10.00;5.17;;;;;;;15.42;100.00;95912.06;1040005;28;20087;-78
2021/08/19 02:14:16;;;;;;;7.97;5.27;;;;;;;15.42;100.00;95911.28;1035759;28;20534;-77
2021/08/19 02:14:47;;;;;;;8.80;4.90;;;;;;;15.43;100.00;95912.88;1035920;28;20093;-77
2021/08/19 02:15:17;;;;;;;7.93;4.70;;;;;;;15.42;100.00;95912.06;1035893;28;20418;-77
2021/08/19 02:15:48;;;;;;;8.80;5.27;;;;;;;15.43;100.00;95912.88;1035936;28;20479;-77
2021/08/19 02:16:18;;;;;;;8.30;5.23;;;;;;;15.45;100.00;95910.66;1043897;28;20021;-78
2021/08/19 02:16:49;;;;;;;8.57;5.23;;;;;;;15.41;100.00;95910.47;1040026;28;20017;-78
2021/08/19 02:17:19;;;;;;;8.20;4.83;;;;;;;15.36;100.00;95905.22;1039670;28;20013;-77
2021/08/19 02:17:50;;;;;;;8.97;5.23;;;;;;;15.37;100.00;95908.69;1035888;28;20026;-78
2021/08/19 02:18:20;;;;;;;9.40;5.23;;;;;;;15.34;100.00;95913.56;1031822;28;20041;-77
2021/08/19 02:18:50;;;;;;;8.83;5.23;;;;;;;15.30;100.00;95917.16;1031845;28;20027;-78
2021/08/19 02:19:21;;;;;;;9.70;5.33;;;;;;;15.29;100.00;95908.28;1035931;28;20026;-78
2021/08/19 02:19:51;;;;;;;8.63;4.90;;;;;;;15.32;100.00;95913.06;1040042;28;20029;-77
2021/08/19 02:20:22;;;;;;;8.73;5.43;;;;;;;15.34;100.00;95908.19;1044396;28;20028;-77
2021/08/19 02:20:52;;;;;;;11.63;5.10;;;;;;;15.36;100.00;95907.09;1040529;28;20100;-77
2021/08/19 02:21:23;;;;;;;10.27;4.93;;;;;;;15.37;100.00;95914.88;1040713;28;20025;-78
2021/08/19 02:21:53;;;;;;;8.33;5.43;;;;;;;15.38;100.00;95915.66;1036654;28;20041;-77
2021/08/19 02:22:23;;;;;;;9.50;5.57;;;;;;;15.39;100.00;95918.03;1036756;28;20018;-77
2021/08/19 02:22:58;;;;;;;9.43;4.93;;;;;;;15.37;100.00;95916.78;1040780;28;20383;-78
2021/08/19 02:23:29;;;;;;;9.27;4.90;;;;;;;15.38;100.00;95913.75;1041447;28;20382;-77